sensor_id;sensor_type;location;lat;lon;timestamp;P1;P2;P0
62846;PMS5003;49477;35.676;139.586;2023-08-08T00:01:12;5;5;
62846;PMS5003;49477;35.676;139.586;2023-08-08T00:03:42;7;6;
62846;PMS5003;49477;35.676;139.586;2023-08-08T00:06:11;7;7;
62846;PMS5003;49477;35.676;139.586;2023-08-08T00:08:41;5;5;
62846;PMS5003;49477;35.676;139.586;2023-08-08T00:11:10;5;5;
62846;PMS5003;49477;35.676;139.586;2023-08-08T00:13:40;5;5;
62846;PMS5003;49477;35.676;139.586;2023-08-08T00:16:09;5;5;
62846;PMS5003;49477;35.676;139.586;2023-08-08T00:18:39;5;4;
62846;PMS5003;49477;35.676;139.586;2023-08-08T00:21:08;5;5;
62846;PMS5003;49477;35.676;139.586;2023-08-08T00:23:38;3;3;
62846;PMS5003;49477;35.676;139.586;2023-08-08T00:26:07;2;2;
62846;PMS5003;49477;35.676;139.586;2023-08-08T00:28:37;3;3;
62846;PMS5003;49477;35.676;139.586;2023-08-08T00:31:06;4;4;
62846;PMS5003;49477;35.676;139.586;2023-08-08T00:33:36;4;3;
62846;PMS5003;49477;35.676;139.586;2023-08-08T00:36:05;3;3;
62846;PMS5003;49477;35.676;139.586;2023-08-08T00:38:35;4;4;
62846;PMS5003;49477;35.676;139.586;2023-08-08T00:41:04;5;3;
62846;PMS5003;49477;35.676;139.586;2023-08-08T00:43:34;4;4;
62846;PMS5003;49477;35.676;139.586;2023-08-08T00:46:03;4;4;
62846;PMS5003;49477;35.676;139.586;2023-08-08T00:48:33;4;2;
62846;PMS5003;49477;35.676;139.586;2023-08-08T00:51:02;3;3;
62846;PMS5003;49477;35.676;139.586;2023-08-08T00:53:32;4;4;
62846;PMS5003;49477;35.676;139.586;2023-08-08T00:56:01;5;3;
62846;PMS5003;49477;35.676;139.586;2023-08-08T00:58:31;3;3;
62846;PMS5003;49477;35.676;139.586;2023-08-08T01:01:00;2;2;
62846;PMS5003;49477;35.676;139.586;2023-08-08T01:03:31;3;3;
62846;PMS5003;49477;35.676;139.586;2023-08-08T01:06:02;4;4;
62846;PMS5003;49477;35.676;139.586;2023-08-08T01:08:39;5;3;
62846;PMS5003;49477;35.676;139.586;2023-08-08T01:11:12;5;5;
62846;PMS5003;49477;35.676;139.586;2023-08-08T01:13:43;2;2;
62846;PMS5003;49477;35.676;139.586;2023-08-08T01:16:13;4;4;
62846;PMS5003;49477;35.676;139.586;2023-08-08T01:18:43;4;4;
62846;PMS5003;49477;35.676;139.586;2023-08-08T01:21:15;5;3;
62846;PMS5003;49477;35.676;139.586;2023-08-08T01:23:45;3;3;
62846;PMS5003;49477;35.676;139.586;2023-08-08T01:26:20;2;2;
62846;PMS5003;49477;35.676;139.586;2023-08-08T01:28:52;4;4;
62846;PMS5003;49477;35.676;139.586;2023-08-08T01:31:22;4;4;
62846;PMS5003;49477;35.676;139.586;2023-08-08T01:33:52;3;3;
62846;PMS5003;49477;35.676;139.586;2023-08-08T01:36:22;4;3;
62846;PMS5003;49477;35.676;139.586;2023-08-08T01:38:56;4;4;
62846;PMS5003;49477;35.676;139.586;2023-08-08T01:41:29;3;3;
62846;PMS5003;49477;35.676;139.586;2023-08-08T01:44:00;2;2;
62846;PMS5003;49477;35.676;139.586;2023-08-08T01:46:36;2;2;
62846;PMS5003;49477;35.676;139.586;2023-08-08T01:49:06;4;2;
62846;PMS5003;49477;35.676;139.586;2023-08-08T01:51:37;3;3;
62846;PMS5003;49477;35.676;139.586;2023-08-08T01:54:06;2;2;
62846;PMS5003;49477;35.676;139.586;2023-08-08T01:56:35;1;1;
62846;PMS5003;49477;35.676;139.586;2023-08-08T01:59:05;3;1;
62846;PMS5003;49477;35.676;139.586;2023-08-08T02:01:35;1;1;
62846;PMS5003;49477;35.676;139.586;2023-08-08T02:04:04;3;3;
62846;PMS5003;49477;35.676;139.586;2023-08-08T02:06:33;3;3;
62846;PMS5003;49477;35.676;139.586;2023-08-08T02:09:03;2;2;
62846;PMS5003;49477;35.676;139.586;2023-08-08T02:11:32;3;3;
62846;PMS5003;49477;35.676;139.586;2023-08-08T02:14:02;4;2;
62846;PMS5003;49477;35.676;139.586;2023-08-08T02:16:31;4;3;
62846;PMS5003;49477;35.676;139.586;2023-08-08T02:19:01;3;3;
62846;PMS5003;49477;35.676;139.586;2023-08-08T02:21:32;1;1;
62846;PMS5003;49477;35.676;139.586;2023-08-08T02:24:01;3;2;
62846;PMS5003;49477;35.676;139.586;2023-08-08T02:26:31;3;3;
62846;PMS5003;49477;35.676;139.586;2023-08-08T02:29:01;3;3;
62846;PMS5003;49477;35.676;139.586;2023-08-08T02:31:30;5;3;
62846;PMS5003;49477;35.676;139.586;2023-08-08T02:34:00;2;2;
62846;PMS5003;49477;35.676;139.586;2023-08-08T02:36:29;3;3;
62846;PMS5003;49477;35.676;139.586;2023-08-08T02:38:59;3;3;
62846;PMS5003;49477;35.676;139.586;2023-08-08T02:41:29;2;2;
62846;PMS5003;49477;35.676;139.586;2023-08-08T02:43:58;4;4;
62846;PMS5003;49477;35.676;139.586;2023-08-08T02:46:28;4;4;
62846;PMS5003;49477;35.676;139.586;2023-08-08T02:48:57;4;2;
62846;PMS5003;49477;35.676;139.586;2023-08-08T02:51:27;4;4;
62846;PMS5003;49477;35.676;139.586;2023-08-08T02:53:57;4;4;
62846;PMS5003;49477;35.676;139.586;2023-08-08T02:56:26;3;3;
62846;PMS5003;49477;35.676;139.586;2023-08-08T02:58:57;4;4;
62846;PMS5003;49477;35.676;139.586;2023-08-08T03:01:26;4;4;
62846;PMS5003;49477;35.676;139.586;2023-08-08T03:03:55;4;4;
62846;PMS5003;49477;35.676;139.586;2023-08-08T03:06:31;3;3;
62846;PMS5003;49477;35.676;139.586;2023-08-08T03:09:00;3;3;
62846;PMS5003;49477;35.676;139.586;2023-08-08T03:11:29;3;3;
62846;PMS5003;49477;35.676;139.586;2023-08-08T03:13:59;3;3;
62846;PMS5003;49477;35.676;139.586;2023-08-08T03:16:28;3;3;
62846;PMS5003;49477;35.676;139.586;2023-08-08T03:18:58;3;3;
62846;PMS5003;49477;35.676;139.586;2023-08-08T03:21:27;3;3;
62846;PMS5003;49477;35.676;139.586;2023-08-08T03:23:57;3;3;
62846;PMS5003;49477;35.676;139.586;2023-08-08T03:26:26;4;4;
62846;PMS5003;49477;35.676;139.586;2023-08-08T03:28:56;5;5;
62846;PMS5003;49477;35.676;139.586;2023-08-08T03:31:25;2;2;
62846;PMS5003;49477;35.676;139.586;2023-08-08T03:33:55;5;3;
62846;PMS5003;49477;35.676;139.586;2023-08-08T03:36:24;3;3;
62846;PMS5003;49477;35.676;139.586;2023-08-08T03:38:54;3;3;
62846;PMS5003;49477;35.676;139.586;2023-08-08T03:41:24;4;4;
62846;PMS5003;49477;35.676;139.586;2023-08-08T03:43:54;4;4;
62846;PMS5003;49477;35.676;139.586;2023-08-08T03:46:24;6;5;
62846;PMS5003;49477;35.676;139.586;2023-08-08T03:48:53;5;5;
62846;PMS5003;49477;35.676;139.586;2023-08-08T03:51:22;4;4;
62846;PMS5003;49477;35.676;139.586;2023-08-08T03:53:52;5;5;
62846;PMS5003;49477;35.676;139.586;2023-08-08T03:56:21;8;6;
62846;PMS5003;49477;35.676;139.586;2023-08-08T03:58:51;3;3;
62846;PMS5003;49477;35.676;139.586;2023-08-08T04:01:20;5;5;
62846;PMS5003;49477;35.676;139.586;2023-08-08T04:03:50;8;7;
62846;PMS5003;49477;35.676;139.586;2023-08-08T04:06:19;4;4;
62846;PMS5003;49477;35.676;139.586;2023-08-08T04:08:49;5;5;
62846;PMS5003;49477;35.676;139.586;2023-08-08T04:11:19;8;8;
62846;PMS5003;49477;35.676;139.586;2023-08-08T04:13:48;7;7;
62846;PMS5003;49477;35.676;139.586;2023-08-08T04:16:18;5;5;
62846;PMS5003;49477;35.676;139.586;2023-08-08T04:18:46;6;6;
62846;PMS5003;49477;35.676;139.586;2023-08-08T04:21:16;7;5;
62846;PMS5003;49477;35.676;139.586;2023-08-08T04:23:46;8;7;
62846;PMS5003;49477;35.676;139.586;2023-08-08T04:26:15;5;5;
62846;PMS5003;49477;35.676;139.586;2023-08-08T04:28:45;4;4;
62846;PMS5003;49477;35.676;139.586;2023-08-08T04:31:14;5;5;
62846;PMS5003;49477;35.676;139.586;2023-08-08T04:33:43;5;5;
62846;PMS5003;49477;35.676;139.586;2023-08-08T04:36:13;4;4;
62846;PMS5003;49477;35.676;139.586;2023-08-08T04:38:43;4;4;
62846;PMS5003;49477;35.676;139.586;2023-08-08T04:41:12;5;5;
62846;PMS5003;49477;35.676;139.586;2023-08-08T04:43:41;3;3;
62846;PMS5003;49477;35.676;139.586;2023-08-08T04:46:10;4;4;
62846;PMS5003;49477;35.676;139.586;2023-08-08T04:48:40;3;3;
62846;PMS5003;49477;35.676;139.586;2023-08-08T04:51:09;3;3;
62846;PMS5003;49477;35.676;139.586;2023-08-08T04:53:39;6;5;
62846;PMS5003;49477;35.676;139.586;2023-08-08T04:56:08;3;3;
62846;PMS5003;49477;35.676;139.586;2023-08-08T04:58:38;4;4;
62846;PMS5003;49477;35.676;139.586;2023-08-08T05:01:07;3;2;
62846;PMS5003;49477;35.676;139.586;2023-08-08T05:03:37;5;5;
62846;PMS5003;49477;35.676;139.586;2023-08-08T05:06:07;2;2;
62846;PMS5003;49477;35.676;139.586;2023-08-08T05:08:36;1;1;
62846;PMS5003;49477;35.676;139.586;2023-08-08T05:11:05;2;2;
62846;PMS5003;49477;35.676;139.586;2023-08-08T05:13:35;2;2;
62846;PMS5003;49477;35.676;139.586;2023-08-08T05:16:04;3;3;
62846;PMS5003;49477;35.676;139.586;2023-08-08T05:18:34;3;2;
62846;PMS5003;49477;35.676;139.586;2023-08-08T05:21:03;1;1;
62846;PMS5003;49477;35.676;139.586;2023-08-08T05:23:32;3;3;
62846;PMS5003;49477;35.676;139.586;2023-08-08T05:26:02;2;1;
62846;PMS5003;49477;35.676;139.586;2023-08-08T05:28:31;3;3;
62846;PMS5003;49477;35.676;139.586;2023-08-08T05:31:01;3;3;
62846;PMS5003;49477;35.676;139.586;2023-08-08T05:33:30;4;2;
62846;PMS5003;49477;35.676;139.586;2023-08-08T05:36:00;2;2;
62846;PMS5003;49477;35.676;139.586;2023-08-08T05:38:29;4;3;
62846;PMS5003;49477;35.676;139.586;2023-08-08T05:40:59;4;4;
62846;PMS5003;49477;35.676;139.586;2023-08-08T05:43:28;4;4;
62846;PMS5003;49477;35.676;139.586;2023-08-08T05:45:58;3;3;
62846;PMS5003;49477;35.676;139.586;2023-08-08T05:48:27;3;3;
62846;PMS5003;49477;35.676;139.586;2023-08-08T05:50:56;6;4;
62846;PMS5003;49477;35.676;139.586;2023-08-08T05:53:26;1;1;
62846;PMS5003;49477;35.676;139.586;2023-08-08T05:55:55;2;2;
62846;PMS5003;49477;35.676;139.586;2023-08-08T05:58:25;4;4;
62846;PMS5003;49477;35.676;139.586;2023-08-08T06:00:53;2;2;
62846;PMS5003;49477;35.676;139.586;2023-08-08T06:03:23;3;3;
62846;PMS5003;49477;35.676;139.586;2023-08-08T06:05:52;1;1;
62846;PMS5003;49477;35.676;139.586;2023-08-08T06:08:22;3;3;
62846;PMS5003;49477;35.676;139.586;2023-08-08T06:10:52;2;2;
62846;PMS5003;49477;35.676;139.586;2023-08-08T06:13:21;2;1;
62846;PMS5003;49477;35.676;139.586;2023-08-08T06:15:51;4;3;
62846;PMS5003;49477;35.676;139.586;2023-08-08T06:18:20;4;3;
62846;PMS5003;49477;35.676;139.586;2023-08-08T06:20:50;3;3;
62846;PMS5003;49477;35.676;139.586;2023-08-08T06:23:19;3;3;
62846;PMS5003;49477;35.676;139.586;2023-08-08T06:25:49;0;0;
62846;PMS5003;49477;35.676;139.586;2023-08-08T06:28:18;4;2;
62846;PMS5003;49477;35.676;139.586;2023-08-08T06:30:48;2;2;
62846;PMS5003;49477;35.676;139.586;2023-08-08T06:33:18;1;1;
62846;PMS5003;49477;35.676;139.586;2023-08-08T06:35:47;2;2;
62846;PMS5003;49477;35.676;139.586;2023-08-08T06:38:16;1;1;
62846;PMS5003;49477;35.676;139.586;2023-08-08T06:40:46;2;2;
62846;PMS5003;49477;35.676;139.586;2023-08-08T06:43:15;3;2;
62846;PMS5003;49477;35.676;139.586;2023-08-08T06:45:44;2;1;
62846;PMS5003;49477;35.676;139.586;2023-08-08T06:48:14;2;2;
62846;PMS5003;49477;35.676;139.586;2023-08-08T06:50:43;3;2;
62846;PMS5003;49477;35.676;139.586;2023-08-08T06:53:13;3;3;
62846;PMS5003;49477;35.676;139.586;2023-08-08T06:55:42;2;2;
62846;PMS5003;49477;35.676;139.586;2023-08-08T06:58:12;2;2;
62846;PMS5003;49477;35.676;139.586;2023-08-08T07:00:41;1;1;
62846;PMS5003;49477;35.676;139.586;2023-08-08T07:03:11;2;2;
62846;PMS5003;49477;35.676;139.586;2023-08-08T07:05:40;1;1;
62846;PMS5003;49477;35.676;139.586;2023-08-08T07:08:10;1;1;
62846;PMS5003;49477;35.676;139.586;2023-08-08T07:10:38;2;2;
62846;PMS5003;49477;35.676;139.586;2023-08-08T07:13:08;1;1;
62846;PMS5003;49477;35.676;139.586;2023-08-08T07:15:36;1;1;
62846;PMS5003;49477;35.676;139.586;2023-08-08T07:18:06;1;1;
62846;PMS5003;49477;35.676;139.586;2023-08-08T07:20:35;2;2;
62846;PMS5003;49477;35.676;139.586;2023-08-08T07:23:05;1;1;
62846;PMS5003;49477;35.676;139.586;2023-08-08T07:25:35;1;1;
62846;PMS5003;49477;35.676;139.586;2023-08-08T07:28:04;3;1;
62846;PMS5003;49477;35.676;139.586;2023-08-08T07:30:34;0;0;
62846;PMS5003;49477;35.676;139.586;2023-08-08T07:33:03;0;0;
62846;PMS5003;49477;35.676;139.586;2023-08-08T07:35:33;1;1;
62846;PMS5003;49477;35.676;139.586;2023-08-08T07:38:02;1;1;
62846;PMS5003;49477;35.676;139.586;2023-08-08T07:40:32;2;2;
62846;PMS5003;49477;35.676;139.586;2023-08-08T07:43:01;1;1;
62846;PMS5003;49477;35.676;139.586;2023-08-08T07:45:31;1;0;
62846;PMS5003;49477;35.676;139.586;2023-08-08T07:48:00;1;1;
62846;PMS5003;49477;35.676;139.586;2023-08-08T07:50:30;1;1;
62846;PMS5003;49477;35.676;139.586;2023-08-08T07:52:59;1;1;
62846;PMS5003;49477;35.676;139.586;2023-08-08T07:55:29;0;0;
62846;PMS5003;49477;35.676;139.586;2023-08-08T07:57:58;0;0;
62846;PMS5003;49477;35.676;139.586;2023-08-08T08:00:28;0;0;
62846;PMS5003;49477;35.676;139.586;2023-08-08T08:02:57;1;1;
62846;PMS5003;49477;35.676;139.586;2023-08-08T08:05:26;1;1;
62846;PMS5003;49477;35.676;139.586;2023-08-08T08:07:55;1;1;
62846;PMS5003;49477;35.676;139.586;2023-08-08T08:10:25;1;1;
62846;PMS5003;49477;35.676;139.586;2023-08-08T08:12:54;0;0;
62846;PMS5003;49477;35.676;139.586;2023-08-08T08:15:24;0;0;
62846;PMS5003;49477;35.676;139.586;2023-08-08T08:17:53;1;1;
62846;PMS5003;49477;35.676;139.586;2023-08-08T08:20:23;0;0;
62846;PMS5003;49477;35.676;139.586;2023-08-08T08:22:52;0;0;
62846;PMS5003;49477;35.676;139.586;2023-08-08T08:25:22;1;1;
62846;PMS5003;49477;35.676;139.586;2023-08-08T08:27:51;1;1;
62846;PMS5003;49477;35.676;139.586;2023-08-08T08:30:21;1;1;
62846;PMS5003;49477;35.676;139.586;2023-08-08T08:32:50;0;0;
62846;PMS5003;49477;35.676;139.586;2023-08-08T08:35:20;0;0;
62846;PMS5003;49477;35.676;139.586;2023-08-08T08:37:50;2;2;
62846;PMS5003;49477;35.676;139.586;2023-08-08T08:40:19;0;0;
62846;PMS5003;49477;35.676;139.586;2023-08-08T08:42:48;2;2;
62846;PMS5003;49477;35.676;139.586;2023-08-08T08:45:18;1;1;
62846;PMS5003;49477;35.676;139.586;2023-08-08T08:47:49;0;0;
62846;PMS5003;49477;35.676;139.586;2023-08-08T08:50:23;1;1;
62846;PMS5003;49477;35.676;139.586;2023-08-08T08:52:59;2;2;
62846;PMS5003;49477;35.676;139.586;2023-08-08T08:55:29;0;0;
62846;PMS5003;49477;35.676;139.586;2023-08-08T08:57:59;0;0;
62846;PMS5003;49477;35.676;139.586;2023-08-08T09:00:29;0;0;
62846;PMS5003;49477;35.676;139.586;2023-08-08T09:03:00;0;0;
62846;PMS5003;49477;35.676;139.586;2023-08-08T09:05:30;1;1;
62846;PMS5003;49477;35.676;139.586;2023-08-08T09:08:00;1;1;
62846;PMS5003;49477;35.676;139.586;2023-08-08T09:10:30;0;0;
62846;PMS5003;49477;35.676;139.586;2023-08-08T09:13:01;0;0;
62846;PMS5003;49477;35.676;139.586;2023-08-08T09:15:30;1;1;
62846;PMS5003;49477;35.676;139.586;2023-08-08T09:18:00;0;0;
62846;PMS5003;49477;35.676;139.586;2023-08-08T09:20:30;0;0;
62846;PMS5003;49477;35.676;139.586;2023-08-08T09:23:00;2;1;
62846;PMS5003;49477;35.676;139.586;2023-08-08T09:25:29;2;0;
62846;PMS5003;49477;35.676;139.586;2023-08-08T09:27:59;0;0;
62846;PMS5003;49477;35.676;139.586;2023-08-08T09:30:28;1;1;
62846;PMS5003;49477;35.676;139.586;2023-08-08T09:32:58;0;0;
62846;PMS5003;49477;35.676;139.586;2023-08-08T09:35:29;0;0;
62846;PMS5003;49477;35.676;139.586;2023-08-08T09:37:58;1;1;
62846;PMS5003;49477;35.676;139.586;2023-08-08T09:40:27;1;1;
62846;PMS5003;49477;35.676;139.586;2023-08-08T09:42:57;1;1;
62846;PMS5003;49477;35.676;139.586;2023-08-08T09:45:26;2;1;
62846;PMS5003;49477;35.676;139.586;2023-08-08T09:48:04;1;1;
62846;PMS5003;49477;35.676;139.586;2023-08-08T09:50:33;0;0;
62846;PMS5003;49477;35.676;139.586;2023-08-08T09:53:04;2;2;
62846;PMS5003;49477;35.676;139.586;2023-08-08T09:55:34;2;2;
62846;PMS5003;49477;35.676;139.586;2023-08-08T09:58:04;1;1;
62846;PMS5003;49477;35.676;139.586;2023-08-08T10:00:34;1;1;
62846;PMS5003;49477;35.676;139.586;2023-08-08T10:03:03;5;1;
62846;PMS5003;49477;35.676;139.586;2023-08-08T10:05:34;0;0;
62846;PMS5003;49477;35.676;139.586;2023-08-08T10:08:04;1;1;
62846;PMS5003;49477;35.676;139.586;2023-08-08T10:10:33;1;1;
62846;PMS5003;49477;35.676;139.586;2023-08-08T10:13:03;1;1;
62846;PMS5003;49477;35.676;139.586;2023-08-08T10:15:36;1;1;
62846;PMS5003;49477;35.676;139.586;2023-08-08T10:18:06;1;1;
62846;PMS5003;49477;35.676;139.586;2023-08-08T10:20:37;0;0;
62846;PMS5003;49477;35.676;139.586;2023-08-08T10:23:06;2;2;
62846;PMS5003;49477;35.676;139.586;2023-08-08T10:25:36;1;1;
62846;PMS5003;49477;35.676;139.586;2023-08-08T10:28:12;0;0;
62846;PMS5003;49477;35.676;139.586;2023-08-08T10:30:44;2;2;
62846;PMS5003;49477;35.676;139.586;2023-08-08T10:33:16;1;1;
62846;PMS5003;49477;35.676;139.586;2023-08-08T10:36:02;1;1;
62846;PMS5003;49477;35.676;139.586;2023-08-08T10:38:41;0;0;
62846;PMS5003;49477;35.676;139.586;2023-08-08T10:41:11;0;0;
62846;PMS5003;49477;35.676;139.586;2023-08-08T10:43:47;1;1;
62846;PMS5003;49477;35.676;139.586;2023-08-08T10:46:23;1;1;
62846;PMS5003;49477;35.676;139.586;2023-08-08T10:48:53;0;0;
62846;PMS5003;49477;35.676;139.586;2023-08-08T10:51:32;1;0;
62846;PMS5003;49477;35.676;139.586;2023-08-08T10:54:05;0;0;
62846;PMS5003;49477;35.676;139.586;2023-08-08T10:56:40;2;0;
62846;PMS5003;49477;35.676;139.586;2023-08-08T10:59:16;1;1;
62846;PMS5003;49477;35.676;139.586;2023-08-08T11:01:46;1;1;
62846;PMS5003;49477;35.676;139.586;2023-08-08T11:04:19;2;0;
62846;PMS5003;49477;35.676;139.586;2023-08-08T11:06:50;0;0;
62846;PMS5003;49477;35.676;139.586;2023-08-08T11:09:21;0;0;
62846;PMS5003;49477;35.676;139.586;2023-08-08T11:11:50;1;1;
62846;PMS5003;49477;35.676;139.586;2023-08-08T11:14:20;1;1;
62846;PMS5003;49477;35.676;139.586;2023-08-08T11:16:51;0;0;
62846;PMS5003;49477;35.676;139.586;2023-08-08T11:19:21;1;1;
62846;PMS5003;49477;35.676;139.586;2023-08-08T11:21:50;2;2;
62846;PMS5003;49477;35.676;139.586;2023-08-08T11:24:20;1;1;
62846;PMS5003;49477;35.676;139.586;2023-08-08T11:26:49;0;0;
62846;PMS5003;49477;35.676;139.586;2023-08-08T11:29:26;0;0;
62846;PMS5003;49477;35.676;139.586;2023-08-08T11:31:55;1;1;
62846;PMS5003;49477;35.676;139.586;2023-08-08T11:34:26;0;0;
62846;PMS5003;49477;35.676;139.586;2023-08-08T11:36:59;0;0;
62846;PMS5003;49477;35.676;139.586;2023-08-08T11:39:29;0;0;
62846;PMS5003;49477;35.676;139.586;2023-08-08T11:41:59;0;0;
62846;PMS5003;49477;35.676;139.586;2023-08-08T11:44:29;3;1;
62846;PMS5003;49477;35.676;139.586;2023-08-08T11:46:59;1;1;
62846;PMS5003;49477;35.676;139.586;2023-08-08T11:49:29;0;0;
62846;PMS5003;49477;35.676;139.586;2023-08-08T11:52:05;1;1;
62846;PMS5003;49477;35.676;139.586;2023-08-08T11:54:37;0;0;
62846;PMS5003;49477;35.676;139.586;2023-08-08T11:57:06;1;1;
62846;PMS5003;49477;35.676;139.586;2023-08-08T11:59:36;1;1;
62846;PMS5003;49477;35.676;139.586;2023-08-08T12:02:06;1;1;
62846;PMS5003;49477;35.676;139.586;2023-08-08T12:04:36;2;1;
62846;PMS5003;49477;35.676;139.586;2023-08-08T12:07:05;2;1;
62846;PMS5003;49477;35.676;139.586;2023-08-08T12:09:36;1;1;
62846;PMS5003;49477;35.676;139.586;2023-08-08T12:12:06;0;0;
62846;PMS5003;49477;35.676;139.586;2023-08-08T12:14:37;0;0;
62846;PMS5003;49477;35.676;139.586;2023-08-08T12:17:06;0;0;
62846;PMS5003;49477;35.676;139.586;2023-08-08T12:19:36;1;1;
62846;PMS5003;49477;35.676;139.586;2023-08-08T12:22:12;0;0;
62846;PMS5003;49477;35.676;139.586;2023-08-08T12:24:41;1;1;
62846;PMS5003;49477;35.676;139.586;2023-08-08T12:27:11;0;0;
62846;PMS5003;49477;35.676;139.586;2023-08-08T12:29:40;1;1;
62846;PMS5003;49477;35.676;139.586;2023-08-08T12:32:10;0;0;
62846;PMS5003;49477;35.676;139.586;2023-08-08T12:34:39;4;1;
62846;PMS5003;49477;35.676;139.586;2023-08-08T12:37:09;4;2;
62846;PMS5003;49477;35.676;139.586;2023-08-08T12:39:39;1;1;
62846;PMS5003;49477;35.676;139.586;2023-08-08T12:42:08;1;1;
62846;PMS5003;49477;35.676;139.586;2023-08-08T12:44:37;4;3;
62846;PMS5003;49477;35.676;139.586;2023-08-08T12:47:07;0;0;
62846;PMS5003;49477;35.676;139.586;2023-08-08T12:49:37;4;3;
62846;PMS5003;49477;35.676;139.586;2023-08-08T12:52:06;2;2;
62846;PMS5003;49477;35.676;139.586;2023-08-08T12:54:35;2;2;
62846;PMS5003;49477;35.676;139.586;2023-08-08T12:57:05;2;1;
62846;PMS5003;49477;35.676;139.586;2023-08-08T12:59:34;2;2;
62846;PMS5003;49477;35.676;139.586;2023-08-08T13:02:04;1;1;
62846;PMS5003;49477;35.676;139.586;2023-08-08T13:04:33;4;1;
62846;PMS5003;49477;35.676;139.586;2023-08-08T13:07:04;1;1;
62846;PMS5003;49477;35.676;139.586;2023-08-08T13:09:33;1;1;
62846;PMS5003;49477;35.676;139.586;2023-08-08T13:12:03;3;3;
62846;PMS5003;49477;35.676;139.586;2023-08-08T13:14:32;3;3;
62846;PMS5003;49477;35.676;139.586;2023-08-08T13:17:02;3;3;
62846;PMS5003;49477;35.676;139.586;2023-08-08T13:19:31;3;3;
62846;PMS5003;49477;35.676;139.586;2023-08-08T13:22:01;3;3;
62846;PMS5003;49477;35.676;139.586;2023-08-08T13:24:35;4;4;
62846;PMS5003;49477;35.676;139.586;2023-08-08T13:27:05;3;2;
62846;PMS5003;49477;35.676;139.586;2023-08-08T13:29:34;4;3;
62846;PMS5003;49477;35.676;139.586;2023-08-08T13:32:04;2;2;
62846;PMS5003;49477;35.676;139.586;2023-08-08T13:34:35;3;3;
62846;PMS5003;49477;35.676;139.586;2023-08-08T13:37:04;2;2;
62846;PMS5003;49477;35.676;139.586;2023-08-08T13:39:33;6;3;
62846;PMS5003;49477;35.676;139.586;2023-08-08T13:42:04;5;4;
62846;PMS5003;49477;35.676;139.586;2023-08-08T13:44:34;6;6;
62846;PMS5003;49477;35.676;139.586;2023-08-08T13:47:03;5;4;
62846;PMS5003;49477;35.676;139.586;2023-08-08T13:49:32;6;5;
62846;PMS5003;49477;35.676;139.586;2023-08-08T13:52:02;6;6;
62846;PMS5003;49477;35.676;139.586;2023-08-08T13:54:33;5;5;
62846;PMS5003;49477;35.676;139.586;2023-08-08T13:57:02;4;4;
62846;PMS5003;49477;35.676;139.586;2023-08-08T13:59:33;4;4;
62846;PMS5003;49477;35.676;139.586;2023-08-08T14:02:02;6;3;
62846;PMS5003;49477;35.676;139.586;2023-08-08T14:04:32;3;3;
62846;PMS5003;49477;35.676;139.586;2023-08-08T14:07:02;7;3;
62846;PMS5003;49477;35.676;139.586;2023-08-08T14:09:32;4;3;
62846;PMS5003;49477;35.676;139.586;2023-08-08T14:12:01;4;4;
62846;PMS5003;49477;35.676;139.586;2023-08-08T14:14:31;3;3;
62846;PMS5003;49477;35.676;139.586;2023-08-08T14:17:00;6;5;
62846;PMS5003;49477;35.676;139.586;2023-08-08T14:19:30;5;3;
62846;PMS5003;49477;35.676;139.586;2023-08-08T14:21:59;3;3;
62846;PMS5003;49477;35.676;139.586;2023-08-08T14:24:28;3;3;
62846;PMS5003;49477;35.676;139.586;2023-08-08T14:26:58;5;3;
62846;PMS5003;49477;35.676;139.586;2023-08-08T14:29:28;3;3;
62846;PMS5003;49477;35.676;139.586;2023-08-08T14:31:58;4;3;
62846;PMS5003;49477;35.676;139.586;2023-08-08T14:34:29;4;4;
62846;PMS5003;49477;35.676;139.586;2023-08-08T14:36:59;3;1;
62846;PMS5003;49477;35.676;139.586;2023-08-08T14:39:29;5;5;
62846;PMS5003;49477;35.676;139.586;2023-08-08T14:41:58;2;2;
62846;PMS5003;49477;35.676;139.586;2023-08-08T14:44:29;4;4;
62846;PMS5003;49477;35.676;139.586;2023-08-08T14:46:58;6;3;
62846;PMS5003;49477;35.676;139.586;2023-08-08T14:49:28;3;3;
62846;PMS5003;49477;35.676;139.586;2023-08-08T14:51:57;4;4;
62846;PMS5003;49477;35.676;139.586;2023-08-08T14:54:27;3;3;
62846;PMS5003;49477;35.676;139.586;2023-08-08T14:56:56;5;4;
62846;PMS5003;49477;35.676;139.586;2023-08-08T14:59:27;2;2;
62846;PMS5003;49477;35.676;139.586;2023-08-08T15:01:56;5;5;
62846;PMS5003;49477;35.676;139.586;2023-08-08T15:04:26;4;4;
62846;PMS5003;49477;35.676;139.586;2023-08-08T15:06:56;4;4;
62846;PMS5003;49477;35.676;139.586;2023-08-08T15:09:26;3;3;
62846;PMS5003;49477;35.676;139.586;2023-08-08T15:11:56;6;4;
62846;PMS5003;49477;35.676;139.586;2023-08-08T15:14:30;3;3;
62846;PMS5003;49477;35.676;139.586;2023-08-08T15:16:59;5;5;
62846;PMS5003;49477;35.676;139.586;2023-08-08T15:19:29;3;3;
62846;PMS5003;49477;35.676;139.586;2023-08-08T15:22:01;4;4;
62846;PMS5003;49477;35.676;139.586;2023-08-08T15:24:29;4;4;
62846;PMS5003;49477;35.676;139.586;2023-08-08T15:26:59;4;3;
62846;PMS5003;49477;35.676;139.586;2023-08-08T15:29:28;4;4;
62846;PMS5003;49477;35.676;139.586;2023-08-08T15:31:58;6;6;
62846;PMS5003;49477;35.676;139.586;2023-08-08T15:34:28;2;2;
62846;PMS5003;49477;35.676;139.586;2023-08-08T15:36:57;4;4;
62846;PMS5003;49477;35.676;139.586;2023-08-08T15:39:26;4;4;
62846;PMS5003;49477;35.676;139.586;2023-08-08T15:41:56;3;3;
62846;PMS5003;49477;35.676;139.586;2023-08-08T15:44:25;4;3;
62846;PMS5003;49477;35.676;139.586;2023-08-08T15:46:55;3;3;
62846;PMS5003;49477;35.676;139.586;2023-08-08T15:49:24;4;4;
62846;PMS5003;49477;35.676;139.586;2023-08-08T15:51:58;4;3;
62846;PMS5003;49477;35.676;139.586;2023-08-08T15:54:28;3;3;
62846;PMS5003;49477;35.676;139.586;2023-08-08T15:56:57;3;3;
62846;PMS5003;49477;35.676;139.586;2023-08-08T15:59:27;4;3;
62846;PMS5003;49477;35.676;139.586;2023-08-08T16:01:56;5;4;
62846;PMS5003;49477;35.676;139.586;2023-08-08T16:04:26;1;1;
62846;PMS5003;49477;35.676;139.586;2023-08-08T16:06:55;0;0;
62846;PMS5003;49477;35.676;139.586;2023-08-08T16:09:25;1;1;
62846;PMS5003;49477;35.676;139.586;2023-08-08T16:11:55;1;1;
62846;PMS5003;49477;35.676;139.586;2023-08-08T16:14:24;0;0;
62846;PMS5003;49477;35.676;139.586;2023-08-08T16:16:54;3;0;
62846;PMS5003;49477;35.676;139.586;2023-08-08T16:19:23;2;0;
62846;PMS5003;49477;35.676;139.586;2023-08-08T16:21:53;0;0;
62846;PMS5003;49477;35.676;139.586;2023-08-08T16:24:22;3;1;
62846;PMS5003;49477;35.676;139.586;2023-08-08T16:26:52;1;1;
62846;PMS5003;49477;35.676;139.586;2023-08-08T16:29:21;0;0;
62846;PMS5003;49477;35.676;139.586;2023-08-08T16:31:51;0;0;
62846;PMS5003;49477;35.676;139.586;2023-08-08T16:34:20;0;0;
62846;PMS5003;49477;35.676;139.586;2023-08-08T16:36:50;1;0;